Time;durP1;ratioP1;P1;durP2;ratioP2;P2;SDS_P1;SDS_P2;PMS_P1;PMS_P2;Temp;Humidity;BMP_temperature;BMP_pressure;BME280_temperature;BME280_humidity;BME280_pressure;Samples;Min_cycle;Max_cycle;Signal;HPM_P1;HPM_P2
2021/12/30 00:01:41;;;;;;;2.75;2.50;;;;;;;;;;5086124;28;20415;-48
2021/12/30 00:04:08;;;;;;;2.97;2.45;;;;;;;;;;5085864;28;20054;-45
2021/12/30 00:06:39;;;;;;;3.10;2.63;;;;;;;;;;5084688;28;20032;-46
2021/12/30 00:09:06;;;;;;;3.35;2.63;;;;;;;;;;5106383;28;20062;-48
2021/12/30 00:11:32;;;;;;;2.42;2.13;;;;;;;;;;5083379;28;20055;-47
2021/12/30 00:13:58;;;;;;;2.90;2.60;;;;;;;;;;5085790;28;20055;-47
2021/12/30 00:16:24;;;;;;;2.42;2.20;;;;;;;;;;5071559;28;20233;-50
2021/12/30 00:18:51;;;;;;;2.22;2.03;;;;;;;;;;5093061;28;20030;-50
2021/12/30 00:21:19;;;;;;;3.58;2.75;;;;;;;;;;5090464;28;20619;-48
2021/12/30 00:23:45;;;;;;;4.57;3.42;;;;;;;;;;5100164;28;20035;-45
2021/12/30 00:26:11;;;;;;;4.30;3.55;;;;;;;;;;5098089;28;20035;-46
2021/12/30 00:28:37;;;;;;;3.92;2.65;;;;;;;;;;5084991;28;20387;-46
2021/12/30 00:31:05;;;;;;;3.53;3.15;;;;;;;;;;5085906;28;20024;-46
2021/12/30 00:33:34;;;;;;;3.95;3.28;;;;;;;;;;5085107;28;20036;-45
2021/12/30 00:36:06;;;;;;;3.47;2.90;;;;;;;;;;5104482;28;20039;-45
2021/12/30 00:38:32;;;;;;;3.20;2.78;;;;;;;;;;5105575;28;20015;-45
2021/12/30 00:40:58;;;;;;;2.55;2.28;;;;;;;;;;5106065;28;20020;-48
2021/12/30 00:43:24;;;;;;;2.97;2.25;;;;;;;;;;5085089;28;20411;-46
2021/12/30 00:45:50;;;;;;;3.35;2.50;;;;;;;;;;5081722;28;20063;-47
2021/12/30 00:48:18;;;;;;;2.20;2.00;;;;;;;;;;5085094;28;20043;-48
2021/12/30 00:50:45;;;;;;;2.20;2.00;;;;;;;;;;5083927;28;20032;-49
2021/12/30 00:53:12;;;;;;;2.40;2.00;;;;;;;;;;5084751;28;20085;-49
2021/12/30 00:55:38;;;;;;;2.40;2.20;;;;;;;;;;5085019;28;20062;-46
2021/12/30 00:58:05;;;;;;;2.05;1.85;;;;;;;;;;5069871;28;20067;-48
2021/12/30 01:00:32;;;;;;;2.50;1.88;;;;;;;;;;5105068;28;20019;-45
2021/12/30 01:02:58;;;;;;;2.05;1.80;;;;;;;;;;5095562;28;20066;-45
2021/12/30 01:05:24;;;;;;;1.50;1.40;;;;;;;;;;5105506;28;20023;-45
2021/12/30 01:07:50;;;;;;;2.17;1.92;;;;;;;;;;5092585;28;20542;-47
2021/12/30 01:10:20;;;;;;;1.77;1.67;;;;;;;;;;5066186;28;20035;-47
2021/12/30 01:12:47;;;;;;;2.55;2.00;;;;;;;;;;5084459;28;20043;-47
2021/12/30 01:15:17;;;;;;;2.17;1.90;;;;;;;;;;5065948;28;20391;-47
2021/12/30 01:20:10;;;;;;;2.72;2.38;;;;;;;;;;5105118;28;20028;-48
2021/12/30 01:22:37;;;;;;;2.50;2.30;;;;;;;;;;5104528;28;20031;-50
2021/12/30 01:25:06;;;;;;;3.28;2.35;;;;;;;;;;5086794;28;20024;-46
2021/12/30 01:27:33;;;;;;;2.60;2.40;;;;;;;;;;5098520;28;20036;-46
2021/12/30 01:30:00;;;;;;;2.40;2.20;;;;;;;;;;5104767;28;20027;-45
2021/12/30 01:32:26;;;;;;;2.60;2.40;;;;;;;;;;5105026;28;20560;-46
2021/12/30 01:34:52;;;;;;;3.65;2.40;;;;;;;;;;5105209;28;20031;-45
2021/12/30 01:37:21;;;;;;;2.45;2.25;;;;;;;;;;5097293;28;20024;-45
2021/12/30 01:39:47;;;;;;;2.47;2.22;;;;;;;;;;5084563;28;20016;-45
2021/12/30 01:42:14;;;;;;;3.03;2.50;;;;;;;;;;5082412;28;20043;-46
2021/12/30 01:44:41;;;;;;;2.50;2.13;;;;;;;;;;5103754;28;20436;-45
2021/12/30 01:47:07;;;;;;;3.25;2.22;;;;;;;;;;5092091;28;20032;-46
2021/12/30 01:49:33;;;;;;;3.15;2.50;;;;;;;;;;5101403;28;20031;-45
2021/12/30 01:51:59;;;;;;;2.40;2.20;;;;;;;;;;5104965;28;20495;-46
2021/12/30 01:54:27;;;;;;;2.33;2.05;;;;;;;;;;5091139;28;20492;-49
2021/12/30 01:56:56;;;;;;;2.65;2.22;;;;;;;;;;5083692;28;20077;-49
2021/12/30 01:59:24;;;;;;;3.03;2.47;;;;;;;;;;5085265;28;20031;-46
2021/12/30 02:01:56;;;;;;;2.65;2.28;;;;;;;;;;5084590;28;20259;-46
2021/12/30 02:04:23;;;;;;;2.33;1.73;;;;;;;;;;5084718;28;20078;-49
2021/12/30 02:06:49;;;;;;;2.00;1.75;;;;;;;;;;5084540;28;20048;-49
2021/12/30 02:09:17;;;;;;;2.28;1.80;;;;;;;;;;5083595;28;20082;-49
2021/12/30 02:11:43;;;;;;;1.73;1.55;;;;;;;;;;5084094;28;20044;-47
2021/12/30 02:14:10;;;;;;;1.60;1.50;;;;;;;;;;5084725;28;20055;-46
2021/12/30 02:16:37;;;;;;;1.83;1.50;;;;;;;;;;5084119;28;20024;-48
2021/12/30 02:19:04;;;;;;;1.65;1.50;;;;;;;;;;5083272;28;20522;-50
2021/12/30 02:21:31;;;;;;;1.55;1.45;;;;;;;;;;5084619;28;20501;-46
2021/12/30 02:23:58;;;;;;;1.73;1.30;;;;;;;;;;5085215;28;20372;-49
2021/12/30 02:26:24;;;;;;;1.30;1.20;;;;;;;;;;5090316;28;20221;-49
2021/12/30 02:28:50;;;;;;;1.15;1.05;;;;;;;;;;5085315;28;20028;-46
2021/12/30 02:31:18;;;;;;;1.38;1.27;;;;;;;;;;5088555;28;20028;-50
2021/12/30 02:33:45;;;;;;;1.30;1.20;;;;;;;;;;5088171;28;20027;-47
2021/12/30 02:36:12;;;;;;;1.35;1.25;;;;;;;;;;5092993;28;20122;-48
2021/12/30 02:38:43;;;;;;;1.58;1.48;;;;;;;;;;5093483;28;20056;-49
2021/12/30 02:41:14;;;;;;;1.65;1.50;;;;;;;;;;5087770;28;20899;-46
2021/12/30 02:43:41;;;;;;;1.55;1.40;;;;;;;;;;5088148;28;20023;-47
2021/12/30 02:46:07;;;;;;;1.30;1.20;;;;;;;;;;5069731;28;20418;-47
2021/12/30 02:48:36;;;;;;;1.40;1.30;;;;;;;;;;5086627;28;20038;-45
2021/12/30 02:51:04;;;;;;;1.20;1.10;;;;;;;;;;5086992;28;20758;-46
2021/12/30 02:53:30;;;;;;;1.55;1.42;;;;;;;;;;5087507;28;20073;-45
2021/12/30 02:55:57;;;;;;;1.30;1.20;;;;;;;;;;5088598;28;20036;-47
2021/12/30 02:58:24;;;;;;;1.33;1.23;;;;;;;;;;5086774;28;20495;-50
2021/12/30 03:00:55;;;;;;;1.10;1.00;;;;;;;;;;5087776;28;20040;-49
2021/12/30 03:03:23;;;;;;;0.80;0.80;;;;;;;;;;5087549;28;20035;-47
2021/12/30 03:05:50;;;;;;;1.45;1.20;;;;;;;;;;5087803;28;20035;-50
2021/12/30 03:08:17;;;;;;;1.05;0.90;;;;;;;;;;5086333;28;20043;-49
2021/12/30 03:10:43;;;;;;;1.27;1.17;;;;;;;;;;5087903;28;20032;-47
2021/12/30 03:13:13;;;;;;;1.30;1.00;;;;;;;;;;5086910;28;20485;-46
2021/12/30 03:15:41;;;;;;;0.95;0.85;;;;;;;;;;5087779;28;20062;-47
2021/12/30 03:18:07;;;;;;;0.73;0.73;;;;;;;;;;5098597;28;20414;-46
2021/12/30 03:20:33;;;;;;;0.80;0.70;;;;;;;;;;5092168;28;20928;-45
2021/12/30 03:23:00;;;;;;;2.20;1.73;;;;;;;;;;5108009;28;20028;-45
2021/12/30 03:25:27;;;;;;;3.22;2.63;;;;;;;;;;5108670;28;20118;-50
2021/12/30 03:27:53;;;;;;;4.63;3.20;;;;;;;;;;5091601;28;20020;-48
2021/12/30 03:30:19;;;;;;;5.03;3.42;;;;;;;;;;5086979;28;20024;-48
2021/12/30 03:32:46;;;;;;;4.50;3.28;;;;;;;;;;5087261;28;20031;-49
2021/12/30 03:35:12;;;;;;;3.95;3.10;;;;;;;;;;5087081;28;20126;-48
2021/12/30 03:37:38;;;;;;;5.25;3.70;;;;;;;;;;5086202;28;20032;-50
2021/12/30 03:40:06;;;;;;;4.22;3.30;;;;;;;;;;5087308;28;20445;-45
2021/12/30 03:42:32;;;;;;;3.92;2.80;;;;;;;;;;5085960;28;20149;-46
2021/12/30 03:45:00;;;;;;;3.55;2.67;;;;;;;;;;5087188;28;20033;-47
2021/12/30 03:47:26;;;;;;;2.90;2.08;;;;;;;;;;5086434;28;20279;-45
2021/12/30 03:49:53;;;;;;;2.83;2.15;;;;;;;;;;5087333;28;20070;-46
2021/12/30 03:52:25;;;;;;;2.38;2.03;;;;;;;;;;5086493;28;20073;-46
2021/12/30 03:54:52;;;;;;;2.38;2.13;;;;;;;;;;5086881;28;20062;-45
2021/12/30 03:57:18;;;;;;;1.95;1.75;;;;;;;;;;5083992;28;20024;-46
2021/12/30 03:59:45;;;;;;;2.22;1.83;;;;;;;;;;5086993;28;20024;-46
2021/12/30 04:02:11;;;;;;;1.88;1.67;;;;;;;;;;5086702;28;20042;-48
2021/12/30 04:04:37;;;;;;;1.55;1.45;;;;;;;;;;5086265;28;20035;-47
2021/12/30 04:07:03;;;;;;;1.30;1.20;;;;;;;;;;5084435;28;20275;-46
2021/12/30 04:09:29;;;;;;;1.52;1.30;;;;;;;;;;5086302;28;20578;-47
2021/12/30 04:11:55;;;;;;;1.40;1.30;;;;;;;;;;5086610;28;20024;-46
2021/12/30 04:14:22;;;;;;;1.10;1.00;;;;;;;;;;5086456;28;20514;-45
2021/12/30 04:16:48;;;;;;;1.17;1.08;;;;;;;;;;5094961;28;20357;-46
2021/12/30 04:19:14;;;;;;;0.80;0.80;;;;;;;;;;5087367;28;20032;-46
2021/12/30 04:21:41;;;;;;;0.90;0.90;;;;;;;;;;5084799;28;20109;-46
2021/12/30 04:24:07;;;;;;;0.80;0.80;;;;;;;;;;5066201;28;20031;-46
2021/12/30 04:26:35;;;;;;;0.80;0.80;;;;;;;;;;5068779;28;20020;-48
2021/12/30 04:29:00;;;;;;;0.88;0.88;;;;;;;;;;5086197;28;20051;-49
2021/12/30 04:31:26;;;;;;;1.10;1.00;;;;;;;;;;5093379;28;20059;-48
2021/12/30 04:33:53;;;;;;;0.98;0.98;;;;;;;;;;5106404;28;20471;-50
2021/12/30 04:36:19;;;;;;;1.20;1.10;;;;;;;;;;5106322;28;20026;-49
2021/12/30 04:38:45;;;;;;;1.00;1.00;;;;;;;;;;5106528;28;20455;-49
2021/12/30 04:41:13;;;;;;;0.80;0.80;;;;;;;;;;5096213;28;20426;-46
2021/12/30 04:43:39;;;;;;;0.82;0.82;;;;;;;;;;5085944;28;20024;-47
2021/12/30 04:46:05;;;;;;;0.88;0.88;;;;;;;;;;5086217;28;20020;-48
2021/12/30 04:48:32;;;;;;;0.77;0.70;;;;;;;;;;5084703;28;20032;-46
2021/12/30 04:50:58;;;;;;;0.70;0.65;;;;;;;;;;5098462;28;20066;-44
2021/12/30 04:53:25;;;;;;;0.80;0.80;;;;;;;;;;5086028;28;20035;-50
2021/12/30 04:55:52;;;;;;;0.90;0.90;;;;;;;;;;5085530;28;20089;-46
2021/12/30 04:58:18;;;;;;;0.88;0.88;;;;;;;;;;5084146;28;20031;-49
2021/12/30 05:00:44;;;;;;;0.82;0.82;;;;;;;;;;5098917;28;20034;-50
2021/12/30 05:03:14;;;;;;;1.30;1.20;;;;;;;;;;5085766;28;20032;-49
2021/12/30 05:05:50;;;;;;;1.17;1.08;;;;;;;;;;5085408;28;20471;-48
2021/12/30 05:08:18;;;;;;;1.33;1.23;;;;;;;;;;5085339;28;20064;-49
2021/12/30 05:10:44;;;;;;;1.50;1.40;;;;;;;;;;5087849;28;20046;-47
2021/12/30 05:13:11;;;;;;;1.30;1.20;;;;;;;;;;5093804;28;20549;-46
2021/12/30 05:15:37;;;;;;;1.88;1.70;;;;;;;;;;5105615;28;20023;-46
2021/12/30 05:18:05;;;;;;;1.40;1.30;;;;;;;;;;5105473;28;20028;-45
2021/12/30 05:20:31;;;;;;;1.50;1.30;;;;;;;;;;5102426;28;20054;-45
2021/12/30 05:22:58;;;;;;;1.60;1.50;;;;;;;;;;5085806;28;20458;-46
2021/12/30 05:25:24;;;;;;;1.40;1.30;;;;;;;;;;5100954;28;20030;-47
2021/12/30 05:27:51;;;;;;;1.42;1.33;;;;;;;;;;5090403;28;20491;-46
2021/12/30 05:30:18;;;;;;;1.60;1.50;;;;;;;;;;5084693;28;20028;-46
2021/12/30 05:32:44;;;;;;;2.13;1.92;;;;;;;;;;5084593;28;20491;-45
2021/12/30 05:35:12;;;;;;;2.83;2.50;;;;;;;;;;5084208;28;20423;-47
2021/12/30 05:37:39;;;;;;;3.10;2.80;;;;;;;;;;5083882;28;20395;-46
2021/12/30 05:40:06;;;;;;;3.00;2.70;;;;;;;;;;5084952;28;20065;-46
2021/12/30 05:42:32;;;;;;;3.90;3.35;;;;;;;;;;5084355;28;20028;-47
2021/12/30 05:44:58;;;;;;;3.03;2.72;;;;;;;;;;5085274;28;20399;-46
2021/12/30 05:47:25;;;;;;;2.90;2.53;;;;;;;;;;5103032;28;20039;-46
2021/12/30 05:49:51;;;;;;;2.60;2.40;;;;;;;;;;5085097;28;20038;-46
2021/12/30 05:52:17;;;;;;;2.25;2.05;;;;;;;;;;5084567;28;20483;-45
2021/12/30 05:54:44;;;;;;;2.47;2.22;;;;;;;;;;5084762;28;20016;-46
2021/12/30 05:57:11;;;;;;;1.83;1.70;;;;;;;;;;5084145;28;20062;-45
2021/12/30 05:59:37;;;;;;;1.90;1.80;;;;;;;;;;5099783;28;20560;-47
2021/12/30 06:02:04;;;;;;;1.77;1.67;;;;;;;;;;5083558;28;20028;-45
2021/12/30 06:04:30;;;;;;;2.35;2.15;;;;;;;;;;5080754;28;20027;-47
2021/12/30 06:06:56;;;;;;;2.47;2.22;;;;;;;;;;5086766;28;20031;-48
2021/12/30 06:09:24;;;;;;;2.53;2.10;;;;;;;;;;5091839;28;20028;-46
2021/12/30 06:11:50;;;;;;;2.08;1.90;;;;;;;;;;5096957;28;20676;-46
2021/12/30 06:14:16;;;;;;;2.22;2.03;;;;;;;;;;5088844;28;20020;-45
2021/12/30 06:16:42;;;;;;;2.38;1.85;;;;;;;;;;5088860;28;20031;-46
2021/12/30 06:19:09;;;;;;;1.83;1.67;;;;;;;;;;5088959;28;20092;-46
2021/12/30 06:21:35;;;;;;;1.75;1.65;;;;;;;;;;5088106;28;20028;-47
2021/12/30 06:24:02;;;;;;;1.50;1.40;;;;;;;;;;5090993;28;20088;-47
2021/12/30 06:26:28;;;;;;;1.60;1.50;;;;;;;;;;5094852;28;20032;-48
2021/12/30 06:28:54;;;;;;;1.95;1.70;;;;;;;;;;5086935;28;20020;-46
2021/12/30 06:31:20;;;;;;;2.72;2.35;;;;;;;;;;5099965;28;20031;-45
2021/12/30 06:33:46;;;;;;;3.58;3.10;;;;;;;;;;5097696;28;20027;-46
2021/12/30 06:36:12;;;;;;;3.25;2.95;;;;;;;;;;5098556;28;20082;-46
2021/12/30 06:38:38;;;;;;;3.25;2.85;;;;;;;;;;5108883;28;20020;-47
2021/12/30 06:41:07;;;;;;;3.03;2.72;;;;;;;;;;5091381;28;20521;-46
2021/12/30 06:43:33;;;;;;;3.28;2.70;;;;;;;;;;5087857;28;20514;-46
2021/12/30 06:46:04;;;;;;;3.60;3.17;;;;;;;;;;5087755;28;20063;-49
2021/12/30 06:48:30;;;;;;;4.55;3.70;;;;;;;;;;5087942;28;20383;-48
2021/12/30 06:50:57;;;;;;;3.67;3.10;;;;;;;;;;5088660;28;20028;-47
2021/12/30 06:53:24;;;;;;;3.45;2.95;;;;;;;;;;5088277;28;20040;-46
2021/12/30 06:55:51;;;;;;;4.15;3.15;;;;;;;;;;5085044;28;20028;-46
2021/12/30 06:58:18;;;;;;;4.65;3.40;;;;;;;;;;5086408;28;20348;-47
2021/12/30 07:00:44;;;;;;;3.42;3.00;;;;;;;;;;5088024;28;20028;-47
2021/12/30 07:03:10;;;;;;;3.33;2.83;;;;;;;;;;5087875;28;20032;-46
2021/12/30 07:05:36;;;;;;;3.22;2.90;;;;;;;;;;5087487;28;20105;-47
2021/12/30 07:08:02;;;;;;;3.15;2.85;;;;;;;;;;5088019;28;20048;-47
2021/12/30 07:10:28;;;;;;;4.72;3.60;;;;;;;;;;5087528;28;20028;-45
2021/12/30 07:12:55;;;;;;;3.80;3.08;;;;;;;;;;5087710;28;20026;-45
2021/12/30 07:15:21;;;;;;;5.35;3.60;;;;;;;;;;5087094;28;20516;-45
2021/12/30 07:17:47;;;;;;;4.90;3.42;;;;;;;;;;5068991;28;20482;-48
2021/12/30 07:20:13;;;;;;;5.93;4.30;;;;;;;;;;5087277;28;20032;-45
2021/12/30 07:22:39;;;;;;;5.22;4.03;;;;;;;;;;5087740;28;20610;-47
2021/12/30 07:25:06;;;;;;;4.35;3.35;;;;;;;;;;5087447;28;20032;-47
2021/12/30 07:27:32;;;;;;;4.32;3.58;;;;;;;;;;5086210;28;20028;-45
2021/12/30 07:29:59;;;;;;;3.58;2.70;;;;;;;;;;5069482;28;20652;-47
2021/12/30 07:32:25;;;;;;;4.20;3.00;;;;;;;;;;5087254;28;20032;-45
2021/12/30 07:34:51;;;;;;;2.92;2.28;;;;;;;;;;5087437;28;20036;-46
2021/12/30 07:37:17;;;;;;;3.45;2.60;;;;;;;;;;5086932;28;20020;-46
2021/12/30 07:39:44;;;;;;;3.58;2.60;;;;;;;;;;5087288;28;20023;-46
2021/12/30 07:42:10;;;;;;;3.67;2.50;;;;;;;;;;5086688;28;20055;-48
2021/12/30 07:44:37;;;;;;;2.55;2.33;;;;;;;;;;5086905;28;20043;-47
2021/12/30 07:47:03;;;;;;;3.03;2.13;;;;;;;;;;5086882;28;20059;-47
2021/12/30 07:49:29;;;;;;;3.75;2.60;;;;;;;;;;5086773;28;20028;-48
2021/12/30 07:51:55;;;;;;;3.65;2.72;;;;;;;;;;5087564;28;20128;-47
2021/12/30 07:54:22;;;;;;;3.80;2.80;;;;;;;;;;5086552;28;20035;-49
2021/12/30 07:56:48;;;;;;;3.85;3.05;;;;;;;;;;5086906;28;20048;-49
2021/12/30 07:59:14;;;;;;;3.15;2.85;;;;;;;;;;5086855;28;20059;-48
2021/12/30 08:01:40;;;;;;;5.80;4.53;;;;;;;;;;5086612;28;20652;-47
2021/12/30 08:04:06;;;;;;;4.18;3.63;;;;;;;;;;5086693;28;20027;-47
2021/12/30 08:06:33;;;;;;;4.20;3.25;;;;;;;;;;5086165;28;20716;-48
2021/12/30 08:08:59;;;;;;;4.53;2.97;;;;;;;;;;5086585;28;20115;-48
2021/12/30 08:11:25;;;;;;;3.47;2.80;;;;;;;;;;5086676;28;20099;-46
2021/12/30 08:13:51;;;;;;;4.63;3.08;;;;;;;;;;5087752;28;20032;-47
2021/12/30 08:16:17;;;;;;;2.95;2.42;;;;;;;;;;5094801;28;20122;-49
2021/12/30 08:18:43;;;;;;;2.63;2.20;;;;;;;;;;5107978;28;20113;-49
2021/12/30 08:21:10;;;;;;;3.75;2.90;;;;;;;;;;5108412;28;20046;-47
2021/12/30 08:23:37;;;;;;;2.70;2.30;;;;;;;;;;5089764;28;20535;-47
2021/12/30 08:26:04;;;;;;;3.80;2.97;;;;;;;;;;5086917;28;20039;-47
2021/12/30 08:28:30;;;;;;;3.08;2.58;;;;;;;;;;5086628;28;20028;-48
2021/12/30 08:30:57;;;;;;;3.65;2.67;;;;;;;;;;5086557;28;20020;-50
2021/12/30 08:33:23;;;;;;;4.50;3.30;;;;;;;;;;5086959;28;20395;-48
2021/12/30 08:35:49;;;;;;;4.05;3.35;;;;;;;;;;5087507;28;20035;-46
2021/12/30 08:38:17;;;;;;;4.22;2.97;;;;;;;;;;5086892;28;20027;-46
2021/12/30 08:40:45;;;;;;;2.88;2.42;;;;;;;;;;5087417;28;20057;-47
2021/12/30 08:43:13;;;;;;;2.75;2.15;;;;;;;;;;5086855;28;20043;-47
2021/12/30 08:45:39;;;;;;;2.38;2.13;;;;;;;;;;5087299;28;20032;-46
2021/12/30 08:48:06;;;;;;;2.03;1.83;;;;;;;;;;5087023;28;20036;-46
2021/12/30 08:50:32;;;;;;;3.05;1.88;;;;;;;;;;5087050;28;20034;-46
2021/12/30 08:52:58;;;;;;;2.83;2.15;;;;;;;;;;5087271;28;20024;-47
2021/12/30 08:55:24;;;;;;;1.80;1.63;;;;;;;;;;5069183;28;20817;-46
2021/12/30 08:57:50;;;;;;;2.47;1.80;;;;;;;;;;5086660;28;20268;-45
2021/12/30 09:00:23;;;;;;;2.42;2.13;;;;;;;;;;5086401;28;20020;-48
2021/12/30 09:02:49;;;;;;;2.90;2.30;;;;;;;;;;5086285;28;20423;-49
2021/12/30 09:05:15;;;;;;;3.42;2.60;;;;;;;;;;5086895;28;20028;-50
2021/12/30 09:07:41;;;;;;;3.67;3.00;;;;;;;;;;5085394;28;20036;-47
2021/12/30 09:10:09;;;;;;;3.60;2.90;;;;;;;;;;5085557;28;20028;-47
2021/12/30 09:12:35;;;;;;;3.58;2.75;;;;;;;;;;5084383;28;20028;-46
2021/12/30 09:15:03;;;;;;;4.03;3.00;;;;;;;;;;5084979;28;20044;-46
2021/12/30 09:17:30;;;;;;;2.92;2.40;;;;;;;;;;5084784;28;20644;-46
2021/12/30 09:19:56;;;;;;;3.53;2.90;;;;;;;;;;5086519;28;20039;-47
2021/12/30 09:22:22;;;;;;;3.00;2.28;;;;;;;;;;5086608;28;20027;-47
2021/12/30 09:24:48;;;;;;;3.40;2.80;;;;;;;;;;5087184;28;20508;-45
2021/12/30 09:27:14;;;;;;;3.15;2.78;;;;;;;;;;5085348;28;20493;-46
2021/12/30 09:29:40;;;;;;;4.10;3.00;;;;;;;;;;5084787;28;20040;-46
2021/12/30 09:32:06;;;;;;;3.55;2.72;;;;;;;;;;5085173;28;20028;-46
2021/12/30 09:34:32;;;;;;;2.75;2.13;;;;;;;;;;5084986;28;20035;-47
2021/12/30 09:36:58;;;;;;;2.80;2.20;;;;;;;;;;5085330;28;20016;-45
2021/12/30 09:39:24;;;;;;;2.85;2.47;;;;;;;;;;5085302;28;20533;-47
2021/12/30 09:41:50;;;;;;;3.20;2.42;;;;;;;;;;5084460;28;20022;-48
2021/12/30 09:44:18;;;;;;;3.10;2.60;;;;;;;;;;5084495;28;20056;-48
2021/12/30 09:46:44;;;;;;;2.78;2.47;;;;;;;;;;5085034;28;20016;-46
2021/12/30 09:49:12;;;;;;;2.40;2.20;;;;;;;;;;5084826;28;20035;-50
2021/12/30 09:51:40;;;;;;;3.88;2.95;;;;;;;;;;5085051;28;20020;-49
2021/12/30 09:54:07;;;;;;;3.47;2.92;;;;;;;;;;5084935;28;20028;-48
2021/12/30 09:56:34;;;;;;;3.70;2.95;;;;;;;;;;5084211;28;20046;-49
2021/12/30 09:59:00;;;;;;;3.58;2.90;;;;;;;;;;5084504;28;20444;-46
2021/12/30 10:01:26;;;;;;;2.38;2.03;;;;;;;;;;5085366;28;20020;-49
2021/12/30 10:03:56;;;;;;;2.28;2.03;;;;;;;;;;5084727;28;20036;-48
2021/12/30 10:06:22;;;;;;;2.17;1.80;;;;;;;;;;5084585;28;20084;-49
2021/12/30 10:08:58;;;;;;;2.63;1.98;;;;;;;;;;5084673;28;20157;-48
2021/12/30 10:11:25;;;;;;;2.10;1.90;;;;;;;;;;5084495;28;20028;-46
2021/12/30 10:13:52;;;;;;;1.70;1.58;;;;;;;;;;5084393;28;20028;-46
2021/12/30 10:16:19;;;;;;;1.40;1.30;;;;;;;;;;5081841;28;20025;-46
2021/12/30 10:18:56;;;;;;;2.88;1.30;;;;;;;;;;5084998;28;20024;-46
2021/12/30 10:21:32;;;;;;;1.95;1.50;;;;;;;;;;5083842;28;20024;-47
2021/12/30 10:23:59;;;;;;;1.80;1.60;;;;;;;;;;5084936;28;20051;-48
2021/12/30 10:26:25;;;;;;;1.50;1.40;;;;;;;;;;5084901;28;20033;-48
2021/12/30 10:28:54;;;;;;;2.25;1.75;;;;;;;;;;5080642;28;20032;-50
2021/12/30 10:31:23;;;;;;;1.67;1.58;;;;;;;;;;5084980;28;20098;-49
2021/12/30 10:33:57;;;;;;;1.73;1.50;;;;;;;;;;5085614;28;20039;-46
2021/12/30 10:36:27;;;;;;;2.70;1.55;;;;;;;;;;5100376;28;20024;-48
2021/12/30 10:38:54;;;;;;;2.95;1.80;;;;;;;;;;5079743;28;20020;-49
2021/12/30 10:41:24;;;;;;;3.75;2.53;;;;;;;;;;5068450;28;20551;-48
2021/12/30 10:43:57;;;;;;;5.40;2.95;;;;;;;;;;5084506;28;20050;-50
2021/12/30 10:46:26;;;;;;;2.92;2.00;;;;;;;;;;5103338;28;20053;-45
2021/12/30 10:48:52;;;;;;;3.47;1.95;;;;;;;;;;5086534;28;20032;-50
2021/12/30 10:51:24;;;;;;;4.72;2.47;;;;;;;;;;5088999;28;20526;-51
2021/12/30 10:53:52;;;;;;;3.58;2.30;;;;;;;;;;5083959;28;20510;-48
2021/12/30 10:56:29;;;;;;;3.13;2.22;;;;;;;;;;5087938;28;20495;-50
2021/12/30 10:59:07;;;;;;;3.50;2.45;;;;;;;;;;5089312;28;20039;-51
2021/12/30 11:01:36;;;;;;;3.72;3.05;;;;;;;;;;5088779;28;20103;-49
2021/12/30 11:04:02;;;;;;;4.72;3.42;;;;;;;;;;5065980;28;20031;-47
2021/12/30 11:06:29;;;;;;;4.35;3.05;;;;;;;;;;5068523;28;20033;-47
2021/12/30 11:09:06;;;;;;;3.05;2.55;;;;;;;;;;5069309;28;20534;-48
2021/12/30 11:11:32;;;;;;;3.75;2.75;;;;;;;;;;5090597;28;20511;-47
2021/12/30 11:14:03;;;;;;;3.17;2.25;;;;;;;;;;5088798;28;20068;-49
2021/12/30 11:16:29;;;;;;;3.78;2.53;;;;;;;;;;5088329;28;20507;-47
2021/12/30 11:18:57;;;;;;;4.15;2.55;;;;;;;;;;5088576;28;20076;-46
2021/12/30 11:21:36;;;;;;;3.63;2.30;;;;;;;;;;5088147;28;20020;-49
2021/12/30 11:24:03;;;;;;;4.07;2.40;;;;;;;;;;5089096;28;20059;-46
2021/12/30 11:26:29;;;;;;;4.65;2.60;;;;;;;;;;5087545;28;20032;-47
2021/12/30 11:28:56;;;;;;;4.28;3.00;;;;;;;;;;5086781;28;20028;-50
2021/12/30 11:31:22;;;;;;;3.35;2.50;;;;;;;;;;5087980;28;20031;-47
2021/12/30 11:33:49;;;;;;;3.42;2.47;;;;;;;;;;5071182;28;20024;-46
2021/12/30 11:36:17;;;;;;;2.78;2.08;;;;;;;;;;5075540;28;20483;-46
2021/12/30 11:38:43;;;;;;;2.40;1.90;;;;;;;;;;5088637;28;20039;-48
2021/12/30 11:41:16;;;;;;;2.63;1.90;;;;;;;;;;5088408;28;20024;-50
2021/12/30 11:43:44;;;;;;;2.58;2.00;;;;;;;;;;5087934;28;20115;-48
2021/12/30 11:46:28;;;;;;;2.72;1.70;;;;;;;;;;5087847;28;20030;-47
2021/12/30 11:48:54;;;;;;;;;;;;;;;;;;5088243;28;20031;-49
2021/12/30 11:51:23;;;;;;;3.08;1.73;;;;;;;;;;5087664;28;19916;-50
2021/12/30 11:53:50;;;;;;;2.22;1.60;;;;;;;;;;5088176;28;20027;-49
2021/12/30 11:56:19;;;;;;;2.15;1.52;;;;;;;;;;5086973;28;20403;-47
2021/12/30 11:58:49;;;;;;;2.45;1.60;;;;;;;;;;5088180;28;20376;-47
2021/12/30 12:01:20;;;;;;;2.58;1.60;;;;;;;;;;5087020;28;20059;-50
2021/12/30 12:03:46;;;;;;;2.20;1.45;;;;;;;;;;5087627;28;20131;-48
2021/12/30 12:06:25;;;;;;;1.98;1.52;;;;;;;;;;5093358;28;20039;-47
2021/12/30 12:09:11;;;;;;;1.50;1.23;;;;;;;;;;5081591;28;20036;-47
2021/12/30 12:12:09;;;;;;;1.98;1.30;;;;;;;;;;5091969;28;20399;-49
2021/12/30 12:14:39;;;;;;;1.58;1.35;;;;;;;;;;5034385;28;20051;-46
2021/12/30 12:17:06;;;;;;;1.75;1.55;;;;;;;;;;5094201;28;20039;-47
2021/12/30 12:19:41;;;;;;;1.70;1.25;;;;;;;;;;5102099;28;20743;-46
2021/12/30 12:22:25;;;;;;;1.10;1.00;;;;;;;;;;5084333;28;20494;-46
2021/12/30 12:25:05;;;;;;;0.80;0.80;;;;;;;;;;5081569;28;20135;-49
2021/12/30 12:27:32;;;;;;;0.70;0.70;;;;;;;;;;5081030;28;20517;-49
2021/12/30 12:30:00;;;;;;;0.75;0.75;;;;;;;;;;5076487;28;20024;-50
2021/12/30 12:32:32;;;;;;;0.65;0.65;;;;;;;;;;5087738;28;20089;-48
2021/12/30 12:35:18;;;;;;;1.38;1.15;;;;;;;;;;5088593;28;20122;-50
2021/12/30 12:37:45;;;;;;;1.52;0.90;;;;;;;;;;5084806;28;20046;-51
2021/12/30 12:40:11;;;;;;;1.63;1.25;;;;;;;;;;5098387;28;20028;-47
2021/12/30 12:42:43;;;;;;;1.60;1.30;;;;;;;;;;5087698;28;20035;-49
2021/12/30 12:45:23;;;;;;;1.88;1.48;;;;;;;;;;5086111;28;20032;-47
2021/12/30 12:48:09;;;;;;;2.00;1.42;;;;;;;;;;5087928;28;20031;-47
2021/12/30 12:50:39;;;;;;;1.33;1.10;;;;;;;;;;5069568;28;20032;-47
2021/12/30 12:53:19;;;;;;;1.30;1.10;;;;;;;;;;5070076;28;20024;-46
2021/12/30 12:55:45;;;;;;;1.23;1.00;;;;;;;;;;5086000;28;20051;-46
2021/12/30 12:58:11;;;;;;;1.17;1.08;;;;;;;;;;5085557;28;20051;-46
2021/12/30 13:00:38;;;;;;;1.52;1.17;;;;;;;;;;5087654;28;20024;-47
2021/12/30 13:03:04;;;;;;;1.48;0.88;;;;;;;;;;5065969;28;20169;-48
2021/12/30 13:05:30;;;;;;;0.60;0.60;;;;;;;;;;5086711;28;20234;-50
2021/12/30 13:07:57;;;;;;;1.58;1.10;;;;;;;;;;5084340;28;20399;-48
2021/12/30 13:10:23;;;;;;;0.85;0.85;;;;;;;;;;5084757;28;20028;-48
2021/12/30 13:12:49;;;;;;;1.33;0.85;;;;;;;;;;5087931;28;20499;-49
2021/12/30 13:15:16;;;;;;;0.93;0.82;;;;;;;;;;5085022;28;20071;-50
2021/12/30 13:17:43;;;;;;;1.20;0.82;;;;;;;;;;5085521;28;20031;-47
2021/12/30 13:20:13;;;;;;;0.90;0.88;;;;;;;;;;5092362;28;20043;-49
2021/12/30 13:22:39;;;;;;;0.77;0.73;;;;;;;;;;5086555;28;20105;-46
2021/12/30 13:25:06;;;;;;;0.80;0.60;;;;;;;;;;5085678;28;20487;-49
2021/12/30 13:27:39;;;;;;;0.93;0.70;;;;;;;;;;5084733;28;20028;-50
2021/12/30 13:30:08;;;;;;;0.68;0.68;;;;;;;;;;5081355;28;20054;-50
2021/12/30 13:32:35;;;;;;;0.80;0.70;;;;;;;;;;5086458;28;20495;-51
2021/12/30 13:35:22;;;;;;;0.63;0.60;;;;;;;;;;5067248;28;20365;-50
2021/12/30 13:38:05;;;;;;;0.85;0.70;;;;;;;;;;5086160;28;20103;-49
2021/12/30 13:40:37;;;;;;;0.68;0.60;;;;;;;;;;5069312;28;20063;-49
2021/12/30 13:43:07;;;;;;;0.47;0.47;;;;;;;;;;5081101;28;20107;-47
2021/12/30 13:45:44;;;;;;;0.43;0.43;;;;;;;;;;5091287;28;20050;-49
2021/12/30 13:48:15;;;;;;;0.70;0.70;;;;;;;;;;5096511;28;20028;-46
2021/12/30 13:50:44;;;;;;;0.43;0.43;;;;;;;;;;5067590;28;20100;-48
2021/12/30 13:53:13;;;;;;;0.60;0.60;;;;;;;;;;5085349;28;20055;-49
2021/12/30 13:55:45;;;;;;;0.50;0.50;;;;;;;;;;5085275;28;20035;-50
2021/12/30 13:58:16;;;;;;;0.70;0.63;;;;;;;;;;5093689;28;20031;-49
2021/12/30 14:00:47;;;;;;;0.52;0.52;;;;;;;;;;5085998;28;20080;-47
2021/12/30 14:03:17;;;;;;;0.50;0.50;;;;;;;;;;5095101;28;20042;-50
2021/12/30 14:05:48;;;;;;;0.75;0.50;;;;;;;;;;5085492;28;20043;-47
2021/12/30 14:08:17;;;;;;;0.50;0.50;;;;;;;;;;5084794;28;20032;-50
2021/12/30 14:10:51;;;;;;;0.63;0.63;;;;;;;;;;5084449;28;20063;-46
2021/12/30 14:13:17;;;;;;;0.50;0.50;;;;;;;;;;5084421;28;20529;-48
2021/12/30 14:15:44;;;;;;;0.60;0.60;;;;;;;;;;5085350;28;20067;-49
2021/12/30 14:18:11;;;;;;;0.80;0.80;;;;;;;;;;5085235;28;20035;-51
2021/12/30 14:20:38;;;;;;;1.00;0.80;;;;;;;;;;5083521;28;20131;-49
2021/12/30 14:23:05;;;;;;;1.05;0.93;;;;;;;;;;5065778;28;20496;-48
2021/12/30 14:25:33;;;;;;;1.27;1.08;;;;;;;;;;5087905;28;20032;-47
2021/12/30 14:28:00;;;;;;;0.98;0.90;;;;;;;;;;5088305;28;20032;-47
2021/12/30 14:30:34;;;;;;;1.05;0.85;;;;;;;;;;5069115;28;20097;-47
2021/12/30 14:33:23;;;;;;;1.10;1.02;;;;;;;;;;5091184;28;20016;-47
2021/12/30 14:35:49;;;;;;;1.98;1.30;;;;;;;;;;5110154;28;20270;-46
2021/12/30 14:38:28;;;;;;;1.92;1.30;;;;;;;;;;5088488;28;20111;-49
2021/12/30 14:41:20;;;;;;;1.45;1.35;;;;;;;;;;5070713;28;20468;-50
2021/12/30 14:44:07;;;;;;;2.63;1.90;;;;;;;;;;5074113;28;20578;-49
2021/12/30 14:46:36;;;;;;;2.00;1.73;;;;;;;;;;5087083;28;20032;-47
2021/12/30 14:49:23;;;;;;;2.25;1.60;;;;;;;;;;5090746;28;20024;-47
2021/12/30 14:51:50;;;;;;;1.95;1.77;;;;;;;;;;5089961;28;20040;-46